createdAt,value
2023-03-31T00:00:12.472Z,9.00
2023-03-31T00:03:02.602Z,9.00
2023-03-31T00:05:53.591Z,9.00
2023-03-31T00:08:43.837Z,8.90
2023-03-31T00:11:32.541Z,8.90
2023-03-31T00:14:22.285Z,8.90
2023-03-31T00:17:12.273Z,8.80
2023-03-31T00:20:09.933Z,8.90
2023-03-31T00:22:59.130Z,8.80
2023-03-31T00:25:49.296Z,8.80
2023-03-31T00:28:38.174Z,8.80
2023-03-31T00:31:27.754Z,8.70
2023-03-31T00:34:17.549Z,8.70
2023-03-31T00:37:06.445Z,8.70
2023-03-31T00:39:55.356Z,8.70
2023-03-31T00:42:46.654Z,8.70
2023-03-31T00:45:36.301Z,8.70
2023-03-31T00:48:25.486Z,8.70
2023-03-31T00:51:14.792Z,8.70
2023-03-31T00:54:08.587Z,8.70
2023-03-31T00:57:03.596Z,8.70
2023-03-31T00:59:57.535Z,8.70
2023-03-31T01:02:52.693Z,8.70
2023-03-31T01:05:45.967Z,8.70
2023-03-31T01:08:36.701Z,8.80
2023-03-31T01:11:30.791Z,8.80
2023-03-31T01:14:19.833Z,8.80
2023-03-31T01:17:10.762Z,8.80
2023-03-31T01:20:15.055Z,8.80
2023-03-31T01:23:31.026Z,8.80
2023-03-31T01:26:57.322Z,8.80
2023-03-31T01:30:24.229Z,8.80
2023-03-31T01:33:48.852Z,8.80
2023-03-31T01:37:16.064Z,8.70
2023-03-31T01:40:19.567Z,8.80
2023-03-31T01:43:14.850Z,8.70
2023-03-31T01:46:10.021Z,8.70
2023-03-31T01:49:06.695Z,8.70
2023-03-31T01:52:05.395Z,8.70
2023-03-31T01:54:57.551Z,8.70
2023-03-31T01:57:52.302Z,8.70
2023-03-31T02:00:44.954Z,8.70
2023-03-31T02:03:38.683Z,8.70
2023-03-31T02:06:33.131Z,8.70
2023-03-31T02:09:25.292Z,8.80
2023-03-31T02:12:15.110Z,8.70
2023-03-31T02:15:09.524Z,8.70
2023-03-31T02:18:00.353Z,8.70
2023-03-31T02:20:52.672Z,8.80
2023-03-31T02:23:41.655Z,8.80
2023-03-31T02:26:36.853Z,8.90
2023-03-31T02:29:25.803Z,8.90
2023-03-31T02:32:22.415Z,8.80
2023-03-31T02:35:14.371Z,8.90
2023-03-31T02:38:06.839Z,8.90
2023-03-31T02:40:55.660Z,8.90
2023-03-31T02:43:44.733Z,8.90
2023-03-31T02:46:33.908Z,8.80
2023-03-31T02:49:24.346Z,8.80
2023-03-31T02:52:35.260Z,8.80
2023-03-31T02:55:51.257Z,8.80
2023-03-31T02:58:59.354Z,8.80
2023-03-31T03:02:06.520Z,8.70
2023-03-31T03:05:13.166Z,8.70
2023-03-31T03:08:10.912Z,8.60
2023-03-31T03:11:08.415Z,8.60
2023-03-31T03:14:06.571Z,8.50
2023-03-31T03:17:00.209Z,8.60
2023-03-31T03:19:55.145Z,8.50
2023-03-31T03:22:45.571Z,8.50
2023-03-31T03:25:34.353Z,8.50
2023-03-31T03:28:23.226Z,8.50
2023-03-31T03:31:12.010Z,8.50
2023-03-31T03:34:00.936Z,8.50
2023-03-31T03:36:49.638Z,8.50
2023-03-31T03:39:39.804Z,8.40
2023-03-31T03:42:28.471Z,8.30
2023-03-31T03:45:17.244Z,8.30
2023-03-31T03:48:06.369Z,8.30
2023-03-31T03:50:55.759Z,8.30
2023-03-31T03:53:44.632Z,8.30
2023-03-31T03:56:34.680Z,8.30
2023-03-31T03:59:23.369Z,8.30
2023-03-31T04:02:12.206Z,8.20
2023-03-31T04:05:00.900Z,8.20
2023-03-31T04:07:49.664Z,8.30
2023-03-31T04:10:38.372Z,8.20
2023-03-31T04:13:28.430Z,8.20
2023-03-31T04:16:17.565Z,8.20
2023-03-31T04:19:06.372Z,8.30
2023-03-31T04:21:59.251Z,8.30
2023-03-31T04:24:52.932Z,8.30
2023-03-31T04:27:47.005Z,8.30
2023-03-31T04:30:39.981Z,8.30
2023-03-31T04:33:28.664Z,8.30
2023-03-31T04:36:18.812Z,8.30
2023-03-31T04:39:10.877Z,8.30
2023-03-31T04:42:00.015Z,8.30
2023-03-31T04:44:49.783Z,8.30
2023-03-31T04:47:39.945Z,8.30
2023-03-31T04:50:28.733Z,8.20
2023-03-31T04:53:17.354Z,8.10
2023-03-31T04:56:08.097Z,8.10
2023-03-31T04:58:57.054Z,8.10
2023-03-31T05:01:46.405Z,8.00
2023-03-31T05:04:37.767Z,8.00
2023-03-31T05:07:26.536Z,7.90
2023-03-31T05:10:15.842Z,7.90
2023-03-31T05:13:04.880Z,7.90
2023-03-31T05:15:53.661Z,8.00
2023-03-31T05:18:42.972Z,7.90
2023-03-31T05:21:33.191Z,7.90
2023-03-31T05:24:22.259Z,7.90
2023-03-31T05:27:10.935Z,7.90
2023-03-31T05:29:59.668Z,7.90
2023-03-31T05:32:48.363Z,7.90
2023-03-31T05:35:37.027Z,7.90
2023-03-31T05:38:29.150Z,7.80
2023-03-31T05:41:17.857Z,7.80
2023-03-31T05:44:06.517Z,7.80
2023-03-31T05:46:55.365Z,7.70
2023-03-31T05:49:44.080Z,7.70
2023-03-31T05:52:33.053Z,7.70
2023-03-31T05:55:23.184Z,7.70
2023-03-31T05:58:11.884Z,7.70
2023-03-31T06:01:07.484Z,7.70
2023-03-31T06:03:56.921Z,7.70
2023-03-31T06:06:46.333Z,7.70
2023-03-31T06:09:35.088Z,7.70
2023-03-31T06:12:25.341Z,7.70
2023-03-31T06:15:13.997Z,7.70
2023-03-31T06:18:02.731Z,7.70
2023-03-31T06:20:52.625Z,7.80
2023-03-31T06:23:41.868Z,7.80
2023-03-31T06:26:30.558Z,7.80
2023-03-31T06:29:20.857Z,7.80
2023-03-31T06:32:10.033Z,7.80
2023-03-31T06:34:58.816Z,7.80
2023-03-31T06:37:47.513Z,7.70
2023-03-31T06:40:36.516Z,7.80
2023-03-31T06:43:25.463Z,7.80
2023-03-31T06:46:15.796Z,7.80
2023-03-31T06:49:04.517Z,7.80
2023-03-31T06:51:53.183Z,7.80
2023-03-31T06:54:43.893Z,7.70
2023-03-31T06:57:34.190Z,7.70
2023-03-31T07:00:23.433Z,7.80
2023-03-31T07:03:13.903Z,7.80
2023-03-31T07:06:02.596Z,7.80
2023-03-31T07:08:51.256Z,7.70
2023-03-31T07:11:39.931Z,7.70
2023-03-31T07:14:28.521Z,7.80
2023-03-31T07:17:17.230Z,7.80
2023-03-31T07:20:12.676Z,7.90
2023-03-31T07:23:01.347Z,7.90
2023-03-31T07:25:50.473Z,7.90
2023-03-31T07:28:39.152Z,8.10
2023-03-31T07:31:28.006Z,8.20
2023-03-31T07:34:16.746Z,8.20
2023-03-31T07:37:06.836Z,8.20
2023-03-31T07:39:55.518Z,8.30
2023-03-31T07:42:46.017Z,8.40
2023-03-31T07:45:37.191Z,8.60
2023-03-31T07:48:28.859Z,9.00
2023-03-31T07:51:19.104Z,9.50
2023-03-31T07:54:09.200Z,9.80
2023-03-31T07:57:01.783Z,10.00
2023-03-31T07:59:50.456Z,10.40
2023-03-31T08:02:39.468Z,10.70
2023-03-31T08:05:29.363Z,10.80
2023-03-31T08:08:18.015Z,10.70
2023-03-31T08:11:08.342Z,10.70
2023-03-31T08:13:57.736Z,10.70
2023-03-31T08:16:46.345Z,11.00
2023-03-31T08:19:35.004Z,11.10
2023-03-31T08:22:23.935Z,11.20
2023-03-31T08:25:12.549Z,11.30
2023-03-31T08:28:02.549Z,11.20
2023-03-31T08:30:52.038Z,11.10
2023-03-31T08:33:41.089Z,10.70
2023-03-31T08:36:30.634Z,10.30
2023-03-31T08:39:19.443Z,10.10
2023-03-31T08:42:16.083Z,10.10
2023-03-31T08:45:10.891Z,10.20
2023-03-31T08:48:04.636Z,10.20
2023-03-31T08:51:01.295Z,10.30
2023-03-31T08:53:54.066Z,10.30
2023-03-31T08:56:45.578Z,10.40
2023-03-31T08:59:35.689Z,10.70
2023-03-31T09:02:33.697Z,10.90
2023-03-31T09:05:49.108Z,11.30
2023-03-31T09:08:45.929Z,11.70
2023-03-31T09:11:37.856Z,12.70
2023-03-31T09:14:31.546Z,13.80
2023-03-31T09:17:24.509Z,13.30
2023-03-31T09:20:19.813Z,12.70
2023-03-31T09:23:21.072Z,12.20
2023-03-31T09:26:24.363Z,12.00
2023-03-31T09:29:18.782Z,11.80
2023-03-31T09:32:16.834Z,11.70
2023-03-31T09:35:19.229Z,11.60
2023-03-31T09:38:07.875Z,11.50
2023-03-31T09:40:56.821Z,11.40
2023-03-31T09:43:47.203Z,11.20
2023-03-31T09:46:37.554Z,10.90
2023-03-31T09:49:29.531Z,10.50
2023-03-31T09:52:28.482Z,10.20
2023-03-31T09:55:38.349Z,10.00
2023-03-31T09:58:28.161Z,9.70
2023-03-31T10:01:17.313Z,9.40
2023-03-31T10:04:10.622Z,9.20
2023-03-31T10:07:01.235Z,9.00
2023-03-31T10:09:51.512Z,8.80
2023-03-31T10:12:40.353Z,8.90
2023-03-31T10:15:29.775Z,9.00
2023-03-31T10:18:20.527Z,9.10
2023-03-31T10:21:21.312Z,9.50
2023-03-31T10:24:11.421Z,10.00
2023-03-31T10:27:01.569Z,10.50
2023-03-31T10:29:54.260Z,10.90
2023-03-31T10:32:44.110Z,11.60
2023-03-31T10:35:35.606Z,12.30
2023-03-31T10:38:28.925Z,12.50
2023-03-31T10:41:21.017Z,12.20
2023-03-31T10:44:34.009Z,12.00
2023-03-31T10:47:23.190Z,11.80
2023-03-31T10:50:16.765Z,11.70
2023-03-31T10:53:07.869Z,11.80
2023-03-31T10:56:11.006Z,11.80
2023-03-31T10:59:26.187Z,12.00
2023-03-31T11:02:46.884Z,12.10
2023-03-31T11:05:40.998Z,12.20
2023-03-31T11:08:43.393Z,12.20
2023-03-31T11:11:49.302Z,12.10
2023-03-31T11:14:48.121Z,12.30
2023-03-31T11:17:50.569Z,12.20
2023-03-31T11:20:45.967Z,12.10
2023-03-31T11:23:43.214Z,12.30
2023-03-31T11:26:44.617Z,12.50
2023-03-31T11:29:40.077Z,12.60
2023-03-31T11:32:48.028Z,12.30
2023-03-31T11:36:05.767Z,12.00
2023-03-31T11:39:10.388Z,11.40
2023-03-31T11:42:02.338Z,11.00
2023-03-31T11:44:54.981Z,10.60
2023-03-31T11:47:47.765Z,10.40
2023-03-31T11:50:40.299Z,10.60
2023-03-31T11:53:33.518Z,10.60
2023-03-31T11:56:24.505Z,10.80
2023-03-31T11:59:17.117Z,11.50
2023-03-31T12:02:16.597Z,12.00
2023-03-31T12:05:10.365Z,12.80
2023-03-31T12:08:04.188Z,13.50
2023-03-31T12:10:57.054Z,14.30
2023-03-31T12:13:52.924Z,14.70
2023-03-31T12:16:46.236Z,15.10
2023-03-31T12:19:43.730Z,15.20
2023-03-31T12:22:38.262Z,15.20
2023-03-31T12:25:33.284Z,15.60
2023-03-31T12:28:22.984Z,14.80
2023-03-31T12:31:17.468Z,14.40
2023-03-31T12:34:11.743Z,14.00
2023-03-31T12:37:18.368Z,14.00
2023-03-31T12:40:19.640Z,13.90
2023-03-31T12:43:37.931Z,13.80
2023-03-31T12:46:44.450Z,13.60
2023-03-31T12:49:45.223Z,13.50
2023-03-31T12:52:42.390Z,13.60
2023-03-31T12:55:41.600Z,13.50
2023-03-31T12:58:41.377Z,13.40
2023-03-31T13:01:30.150Z,13.30
2023-03-31T13:04:23.001Z,13.40
2023-03-31T13:07:34.611Z,13.30
2023-03-31T13:10:34.830Z,13.20
2023-03-31T13:13:23.558Z,13.40
2023-03-31T13:16:12.649Z,13.40
2023-03-31T13:19:02.090Z,13.10
2023-03-31T13:21:55.167Z,12.50
2023-03-31T13:24:43.843Z,11.60
2023-03-31T13:27:35.763Z,10.70
2023-03-31T13:30:46.713Z,10.30
2023-03-31T13:33:48.237Z,10.10
2023-03-31T13:36:59.484Z,10.00
2023-03-31T13:40:32.096Z,10.50
2023-03-31T13:43:44.822Z,11.00
2023-03-31T13:46:52.437Z,11.20
2023-03-31T13:49:57.481Z,11.40
2023-03-31T13:52:53.421Z,11.80
2023-03-31T13:56:16.925Z,11.90
2023-03-31T13:59:48.199Z,11.70
2023-03-31T14:03:21.073Z,11.40
2023-03-31T14:06:20.930Z,11.10
2023-03-31T14:09:13.230Z,11.00
2023-03-31T14:14:45.899Z,11.40
2023-03-31T14:17:38.203Z,11.70
2023-03-31T14:20:37.112Z,12.20
2023-03-31T14:23:38.144Z,12.40
2023-03-31T14:26:48.053Z,12.60
2023-03-31T14:29:43.816Z,12.90
2023-03-31T14:32:40.062Z,12.70
2023-03-31T14:35:38.809Z,12.30
2023-03-31T14:38:34.583Z,11.90
2023-03-31T14:44:04.132Z,11.10
2023-03-31T14:47:01.884Z,10.80
2023-03-31T14:50:02.306Z,9.60
2023-03-31T14:52:52.563Z,8.90
2023-03-31T14:55:57.501Z,8.60
2023-03-31T14:58:51.133Z,8.50
2023-03-31T15:01:40.278Z,8.60
2023-03-31T15:04:42.032Z,8.50
2023-03-31T15:07:32.961Z,8.60
2023-03-31T15:10:23.335Z,8.70
2023-03-31T15:13:16.802Z,8.80
2023-03-31T15:16:20.927Z,8.90
2023-03-31T15:19:18.360Z,9.00
2023-03-31T15:22:14.317Z,9.10
2023-03-31T15:25:04.596Z,9.30
2023-03-31T15:27:56.815Z,9.40
2023-03-31T15:30:47.822Z,9.50
2023-03-31T15:33:41.973Z,9.60
2023-03-31T15:36:32.711Z,9.60
2023-03-31T15:39:21.696Z,9.60
2023-03-31T15:42:11.760Z,9.70
2023-03-31T15:45:40.180Z,9.70
2023-03-31T15:48:33.644Z,9.70
2023-03-31T15:51:34.169Z,9.60
2023-03-31T15:54:34.021Z,9.50
2023-03-31T15:57:33.374Z,9.40
2023-03-31T16:00:45.581Z,9.30
2023-03-31T16:03:40.654Z,9.20
2023-03-31T16:06:38.729Z,9.20
2023-03-31T16:09:31.380Z,9.20
2023-03-31T16:12:24.618Z,9.30
2023-03-31T16:15:16.843Z,9.30
2023-03-31T16:18:09.110Z,9.40
2023-03-31T16:21:02.189Z,9.40
2023-03-31T16:23:55.624Z,9.40
2023-03-31T16:26:44.644Z,9.40
2023-03-31T16:29:36.061Z,9.40
2023-03-31T16:32:24.754Z,9.50
2023-03-31T16:35:13.612Z,9.40
2023-03-31T16:38:02.979Z,9.40
2023-03-31T16:40:54.744Z,9.40
2023-03-31T16:43:46.763Z,9.40
2023-03-31T16:46:36.955Z,9.40
2023-03-31T16:49:26.617Z,9.40
2023-03-31T16:52:15.221Z,9.50
2023-03-31T16:55:03.877Z,9.50
2023-03-31T16:57:52.890Z,9.60
2023-03-31T17:00:42.152Z,9.60
2023-03-31T17:03:32.559Z,9.70
2023-03-31T17:06:21.235Z,9.70
2023-03-31T17:09:09.924Z,9.70
2023-03-31T17:11:58.782Z,9.80
2023-03-31T17:14:47.509Z,9.80
2023-03-31T17:17:36.916Z,9.80
2023-03-31T17:20:27.337Z,9.80
2023-03-31T17:23:16.220Z,9.80
2023-03-31T17:26:06.422Z,9.70
2023-03-31T17:28:55.260Z,9.70
2023-03-31T17:31:43.917Z,9.70
2023-03-31T17:34:32.599Z,9.70
2023-03-31T17:37:22.725Z,9.60
2023-03-31T17:40:12.096Z,9.60
2023-03-31T17:43:00.780Z,9.50
2023-03-31T17:45:49.563Z,9.50
2023-03-31T17:48:39.225Z,9.50
2023-03-31T17:51:29.005Z,9.50
2023-03-31T17:54:18.991Z,9.50
2023-03-31T17:57:07.898Z,9.40
2023-03-31T17:59:56.969Z,9.50
2023-03-31T18:02:46.434Z,9.50
2023-03-31T18:05:39.255Z,9.50
2023-03-31T18:08:28.087Z,9.50
2023-03-31T18:11:18.522Z,9.50
2023-03-31T18:14:07.785Z,9.50
2023-03-31T18:16:56.452Z,9.40
2023-03-31T18:19:45.254Z,9.40
2023-03-31T18:22:33.894Z,9.40
2023-03-31T18:25:22.901Z,9.30
2023-03-31T18:28:12.957Z,9.20
2023-03-31T18:31:04.574Z,9.30
2023-03-31T18:33:54.601Z,9.20
2023-03-31T18:36:43.624Z,9.20
2023-03-31T18:39:32.399Z,9.40
2023-03-31T18:42:25.150Z,9.40
2023-03-31T18:45:15.144Z,9.40
2023-03-31T18:48:03.785Z,9.40
2023-03-31T18:50:53.097Z,9.30
2023-03-31T18:53:41.897Z,9.30
2023-03-31T18:56:30.874Z,9.30
2023-03-31T18:59:19.650Z,9.20
2023-03-31T19:02:11.361Z,9.20
2023-03-31T19:05:00.398Z,9.10
2023-03-31T19:07:49.134Z,9.00
2023-03-31T19:10:38.261Z,8.90
2023-03-31T19:13:27.511Z,8.80
2023-03-31T19:16:17.596Z,8.70
2023-03-31T19:19:07.713Z,8.70
2023-03-31T19:21:56.379Z,8.70
2023-03-31T19:24:45.153Z,8.70
2023-03-31T19:27:34.281Z,8.70
2023-03-31T19:30:25.075Z,8.70
2023-03-31T19:33:13.750Z,8.70
2023-03-31T19:36:03.963Z,8.70
2023-03-31T19:38:52.973Z,8.70
2023-03-31T19:41:41.745Z,8.60
2023-03-31T19:44:30.630Z,8.70
2023-03-31T19:47:19.258Z,8.70
2023-03-31T19:50:09.182Z,8.80
2023-03-31T19:52:59.189Z,8.70
2023-03-31T19:55:57.116Z,8.80
2023-03-31T19:58:47.190Z,8.80
2023-03-31T20:01:36.472Z,8.80
2023-03-31T20:04:25.271Z,8.70
2023-03-31T20:07:13.980Z,8.70
2023-03-31T20:10:03.972Z,8.70
2023-03-31T20:12:52.581Z,8.70
2023-03-31T20:15:41.357Z,8.70
2023-03-31T20:18:30.491Z,8.70
2023-03-31T20:21:20.500Z,8.70
2023-03-31T20:24:11.387Z,8.70
2023-03-31T20:27:01.713Z,8.70
2023-03-31T20:29:50.658Z,8.60
2023-03-31T20:32:40.717Z,8.60
2023-03-31T20:35:29.626Z,8.60
2023-03-31T20:38:18.420Z,8.60
2023-03-31T20:41:07.837Z,8.60
2023-03-31T20:43:58.712Z,8.60
2023-03-31T20:46:47.669Z,8.60
2023-03-31T20:49:36.444Z,8.60
2023-03-31T20:52:25.124Z,8.60
2023-03-31T20:55:13.698Z,8.60
2023-03-31T20:58:02.296Z,8.70
2023-03-31T21:00:58.918Z,8.60
2023-03-31T21:03:47.953Z,8.70
2023-03-31T21:06:39.844Z,8.60
2023-03-31T21:09:28.514Z,8.60
2023-03-31T21:12:17.225Z,8.60
2023-03-31T21:15:06.677Z,8.60
2023-03-31T21:17:56.722Z,8.70
2023-03-31T21:20:51.674Z,8.70
2023-03-31T21:23:40.714Z,8.60
2023-03-31T21:26:29.339Z,8.60
2023-03-31T21:29:18.064Z,8.60
2023-03-31T21:32:07.049Z,8.60
2023-03-31T21:34:57.172Z,8.60
2023-03-31T21:37:45.783Z,8.60
2023-03-31T21:40:36.358Z,8.60
2023-03-31T21:43:26.020Z,8.60
2023-03-31T21:46:18.175Z,8.60
2023-03-31T21:49:07.242Z,8.60
2023-03-31T21:51:57.209Z,8.60
2023-03-31T21:54:46.014Z,8.60
2023-03-31T21:57:34.658Z,8.60
2023-03-31T22:00:23.429Z,8.60
2023-03-31T22:06:08.040Z,8.50
2023-03-31T22:08:58.098Z,8.60
2023-03-31T22:11:47.243Z,8.50
2023-03-31T22:14:38.424Z,8.40
2023-03-31T22:17:28.097Z,8.40
2023-03-31T22:20:17.107Z,8.40
2023-03-31T22:23:06.467Z,8.40
2023-03-31T22:25:56.761Z,8.40
2023-03-31T22:28:45.534Z,8.40
2023-03-31T22:31:34.152Z,8.40
2023-03-31T22:34:22.830Z,8.40
2023-03-31T22:37:11.809Z,8.50
2023-03-31T22:40:00.501Z,8.50
2023-03-31T22:42:50.578Z,8.50
2023-03-31T22:45:39.289Z,8.40
2023-03-31T22:48:27.932Z,8.50
2023-03-31T22:51:16.547Z,8.50
2023-03-31T22:54:05.250Z,8.50
2023-03-31T22:56:54.442Z,8.50
2023-03-31T22:59:44.744Z,8.60
2023-03-31T23:02:33.419Z,8.50
2023-03-31T23:05:24.456Z,8.50
2023-03-31T23:08:13.104Z,8.50
2023-03-31T23:11:01.915Z,8.60
2023-03-31T23:13:50.653Z,8.60
2023-03-31T23:16:41.330Z,8.60
2023-03-31T23:19:30.013Z,8.60
2023-03-31T23:22:18.765Z,8.50
2023-03-31T23:25:08.127Z,8.60
2023-03-31T23:27:56.934Z,8.60
2023-03-31T23:30:56.480Z,8.60
2023-03-31T23:33:47.316Z,8.50
2023-03-31T23:36:36.041Z,8.50
2023-03-31T23:39:24.701Z,8.50
2023-03-31T23:42:16.218Z,8.50
2023-03-31T23:45:05.256Z,8.40
2023-03-31T23:47:53.925Z,8.40
2023-03-31T23:50:44.154Z,8.40
2023-03-31T23:53:33.321Z,8.30
2023-03-31T23:56:22.364Z,8.40
2023-03-31T23:59:11.085Z,8.30
